Aérodrome :
LOGIN :

S'inscrire | Disclaimer

   EN    FR    IT 

 










Légende :    VFR   VFR Marginal   IFR   IFR Intensif   IFR Très Intensif
Visi : 
Plafond : 
>= 8 km
>= 3000ft
5 à 8 km
1000 à 3000 ft
1500m à 5 km
500 à 1000 ft
800 à 1500m
200 à 500 ft
< 800m
< 200 ft
Symboles :   Orages  Brouillard  Fortes neiges  Fortes précipitations  Vent > 20 kt
SIGMETs :   Divers  Orages  Givrage  Turbulence  Onde Orograph.  Cendres Volcan.






- Altitude de l'aérodrome : 142 ft
- Code IATA : ALC


LEAL - Alicante

DERNIER METAR :
  • 090800Z VRB02KT 9999 FEW045 29/14 Q1016 NOSIG

METARs EXPIRÉS :
  • 090730Z VRB01KT 9999 FEW045 27/15 Q1016 NOSIG
  • 090700Z 00000KT 9999 FEW045 27/15 Q1016 NOSIG
  • 090630Z VRB02KT CAVOK 24/15 Q1016 NOSIG
  • 090600Z 00000KT CAVOK 22/16 Q1015 NOSIG
  • 090530Z VRB02KT CAVOK 22/16 Q1016 NOSIG
  • 090500Z 27005KT CAVOK 21/16 Q1015 NOSIG

TAF TAF LEAL
Valide du 09 à 06h jusqu'au 10 à 06h UTC


090500Z 0906/1006 VRB04KT CAVOK TX34/0913Z TN24/1005Z
BECMG 0910/0912 10010KT
BECMG 0918/0920 VRB04KT



MET'MAP, la Météo Aéronautique d'un coup d'oeil ! - Copyright ORBIFLY Décembre 2007 - Disclaimer

ORBIFLY MET'MAP TEAM :

Programmation & Développement : Alexandra Zaïnal
Sur une idée originale de : Baudouin d'Aumeries
Assistance à la programmation : Marc-Olivier Méhu
Soutien technique & logistique : Manuel Goepfert

Contact : metmap@orbifly.com




SOURCES & CREDITS :

   NOAA